Advance Mills, VA

7:35 PM EST on March 02, 2015 (GMT -0500)
Four Seasons | Change Station
CLOSE
Current Station
Personal Weather Station
Location: Ruckersville, VA
Elevation: 564 ft
Nearby Weather Stations
Active Advisory: Winter Weather Advisory

Elev 564 ft 38.23 °N, 78.39 °W | Updated 3 seconds ago

Clear
Clear
40.1 °F
Feels Like 40 °F
N
0.0
Wind Variable Wind from WNW
Gusts 0.0 mph

Today
High -- | Low -- °F
--% Chance of Precip.
Yesterday
High -- | Low -- °F
Precip. -- in
6:44 AM 6:07 PM
Waxing Gibbous, 93% visible
Pressure 30.33 in
Visibility 10.0 miles
Clouds Clear
Windchill 40 °F
Dew Point 18 °F
Humidity 40%
Rainfall 0.00 in
Snow Depth Not available.
UV 0.0 out of 12
Pollen 4.40 out of 12
Air Quality Not available.
Flu Activity Not available.
METAR KCHO 022353Z 01004KT 10SM CLR 05/M10 A3032 RMK AO2 SLP270 T00501100 10100 20044 53023

More Conditions Fewer Conditions

Pressure 30.33 in
Visibility 10.0 miles
Clouds Clear
Windchill 40 °F
Dew Point 18 °F
Humidity 40%
Rainfall 0.00 in
Snow Depth Not available.
UV 0.0 out of 12
Pollen 4.40 out of 12
Air Quality Not available.
Flu Activity Not available.
METAR KCHO 022353Z 01004KT 10SM CLR 05/M10 A3032 RMK AO2 SLP270 T00501100 10100 20044 53023

More Conditions Fewer Conditions

10-Day Weather Forecast

Almanac

Astronomy

Mar. 02, 2015 Rise Set
Actual Time
Civil Twilight
Nautical Twilight
Astronomical Twilight
Moon
Length of Visible Light
Length of Day
Tomorrow will be .
, % of the Moon is Illuminated

Today's Extremes

State Highs State Lows

Community

WunderPhotos

Upload Photos

1,802,006 photos uploaded!

WunderBlogs® & News

Nearby

Air Quality

  Air Quality AQ Index Pollutant
Not available.

Snow Depth

Station Depth Elevation

Earthquake Activity

City Distance Mag. Time & Date
Minimum magnitude displayed is 2.5.

Coastal Water Temperatures

Place Temperature

Nearby Weather Stations

Winter Weather Advisory
Statement as of 3:37 PM EST on March 02, 2015

... Winter Weather Advisory in effect from 9 am to 7 PM EST
Tuesday...

The National Weather Service in Baltimore MD/Washington has
issued a Winter Weather Advisory for snow... sleet and freezing
rain... which is in effect from 9 am to 7 PM EST Tuesday.

* Locations... central Virginia and southern Maryland.

* Hazard types... snow... sleet and freezing rain.

* Accumulations... snow accumulation of up to 1 inch... along with
around a trace of ice.

* Timing... wintry precipitation will begin Tuesday morning over
areas near the Blue Ridge... and by late morning or early
afternoon over southern Maryland.

* Impacts... roads will be snow and ice covered. Travelling will be
dangerous.

* Winds... south 5 to 10 mph.

* Temperatures... around 30.

Precautionary/preparedness actions...

A Winter Weather Advisory means that periods of snow... sleet... or
freezing rain will cause travel difficulties. Be prepared for
slippery roads and limited visibilities... and use caution while
driving.